Bancroft, NE (68004)

4:38 AM CDT on August 28, 2015 (GMT -0500)
Beemer NE | | Change Station
CLOSE
Current Station
Personal Weather Station
Location: Beemer, NE
Elevation: 1417 ft
Nearby Weather Stations

Elev 1417 ft 41.96 °N, 96.81 °W | Updated 8 minutes ago

Overcast
Overcast
66.0 °F
Feels Like 66.0 °F
N
10.9
Wind Variable Wind from SE

Today
High -- | Low -- °F
--% Chance of Precip.
Yesterday
High -- | Low -- °F
Precip. -- in
6:47 AM 8:06 PM
Waxing Gibbous, 97% visible
Pressure 29.84 in
Visibility 10.0 miles
Clouds Overcast 900 ft
Dew Point 66 °F
Humidity 99%
Rainfall 0.76 in
Snow Depth Not available.
UV 0 out of 12
Pollen 7.70 out of 12
Air Quality Not available.
Flu Activity Not available.
METAR KLCG 280915Z AUTO 12009KT 10SM RA OVC009 19/18 A2984 RMK AO2 P0001 T01910181
Pressure 29.84 in
Visibility 10.0 miles
Clouds Overcast 900 ft
Dew Point 66 °F
Humidity 99%
Rainfall 0.76 in
Snow Depth Not available.
UV 0 out of 12
Pollen 7.70 out of 12
Air Quality Not available.
Flu Activity Not available.
METAR KLCG 280915Z AUTO 12009KT 10SM RA OVC009 19/18 A2984 RMK AO2 P0001 T01910181

10-Day Weather Forecast

×

Almanac

Astronomy

Aug. 28, 2015 Rise Set
Actual Time
Civil Twilight
Nautical Twilight
Astronomical Twilight
Moon
Length of Visible Light
Length of Day
Tomorrow will be .
, % of the Moon is Illuminated

Today's Extremes

State Highs State Lows

Community

WunderPhotos

Upload Photos

1,850,352 photos uploaded!

WunderBlogs® & News

Nearby

Air Quality

  Air Quality AQ Index Pollutant
Not available.

Snow Depth

Station Depth Elevation

Earthquake Activity

City Distance Mag. Time & Date
Minimum magnitude displayed is 2.5.

Coastal Water Temperatures

Place Temperature

Stations

Nearby Weather Stations

Station Location Temp. Windchill Dew Point Humidity Wind Precip. Elev Updated Type